Terminal Aerodrome Forecast
Issued by NWS Charleston, WV

Current Version | Previous Version | Text Only | Print | Product List | Glossary Off
Versions: 1 2 3 4 5 6 7 8 9 10 11 12 13 14 15 16 17 18 19 20 21 22 23 24

000
FTUS41 KRLX 271300 AAA
TAFBKW
TAF AMD
KBKW 271323Z 2713/2812 11004KT P6SM FEW005
     FM271500 12005KT P6SM FEW025
     FM272200 11004KT P6SM SCT200
     FM280800 14004KT P6SM SCT080=

USA.gov is the U.S. government's official web portal to all federal, state and local government web resources and services.